Time;durP1;ratioP1;P1;durP2;ratioP2;P2;SDS_P1;SDS_P2;PMS_P1;PMS_P2;Temp;Humidity;BMP_temperature;BMP_pressure;BME280_temperature;BME280_humidity;BME280_pressure;Samples;Min_cycle;Max_cycle;Signal;HPM_P1;HPM_P2
2021/07/15 00:00:55;;;;;;;0.10;0.10;;;16.00;99.90;;;;;;4991248;28;20477;-70
2021/07/15 00:03:25;;;;;;;0.20;0.20;;;16.00;99.90;;;;;;4991680;28;20026;-68
2021/07/15 00:05:52;;;;;;;0.20;0.20;;;16.00;99.90;;;;;;4991381;28;20125;-68
2021/07/15 00:08:22;;;;;;;1.65;0.20;;;16.00;99.90;;;;;;4991900;28;20036;-69
2021/07/15 00:10:55;;;;;;;2.05;0.17;;;16.00;99.90;;;;;;4991934;28;20022;-69
2021/07/15 00:13:20;;;;;;;0.90;0.25;;;16.00;99.90;;;;;;4992011;28;20088;-68
2021/07/15 00:15:51;;;;;;;0.10;0.10;;;15.80;99.90;;;;;;4991101;28;20031;-69
2021/07/15 00:18:28;;;;;;;0.10;0.10;;;15.70;99.90;;;;;;4991693;28;20018;-69
2021/07/15 00:20:55;;;;;;;0.63;0.13;;;15.70;99.90;;;;;;4989958;28;20026;-68
2021/07/15 00:23:21;;;;;;;0.10;0.10;;;15.80;99.90;;;;;;4973311;28;20388;-69
2021/07/15 00:25:48;;;;;;;0.10;0.10;;;15.70;99.90;;;;;;4971816;28;20126;-69
2021/07/15 00:28:15;;;;;;;0.10;0.10;;;15.70;99.90;;;;;;4972325;28;20099;-68
2021/07/15 00:30:40;;;;;;;0.32;0.10;;;15.80;99.90;;;;;;4989144;28;20079;-68
2021/07/15 00:33:08;;;;;;;0.30;0.10;;;15.80;99.90;;;;;;4995356;28;20130;-69
2021/07/15 00:35:34;;;;;;;0.57;0.10;;;15.90;99.90;;;;;;4994713;28;20046;-68
2021/07/15 00:38:00;;;;;;;1.65;0.20;;;16.00;99.90;;;;;;4995743;28;20033;-68
2021/07/15 00:40:26;;;;;;;0.28;0.10;;;16.00;99.90;;;;;;4995608;28;20022;-68
2021/07/15 00:42:52;;;;;;;0.10;0.10;;;16.00;99.90;;;;;;4995658;28;20374;-68
2021/07/15 00:45:18;;;;;;;0.13;0.13;;;15.80;99.90;;;;;;4994724;28;20117;-69
2021/07/15 00:47:44;;;;;;;0.30;0.20;;;15.90;99.90;;;;;;5002083;23;20098;-68
2021/07/15 00:50:11;;;;;;;2.35;0.30;;;15.90;99.90;;;;;;4983257;28;20102;-68
2021/07/15 00:52:38;;;;;;;2.47;0.20;;;15.90;99.90;;;;;;4975298;28;20051;-68
2021/07/15 00:55:07;;;;;;;3.58;0.20;;;15.90;99.90;;;;;;4974865;28;20484;-68
2021/07/15 00:57:33;;;;;;;0.52;0.30;;;15.90;99.90;;;;;;4957743;28;20081;-68
2021/07/15 00:59:59;;;;;;;0.77;0.13;;;15.90;99.90;;;;;;4975108;28;20440;-68
2021/07/15 01:02:25;;;;;;;0.77;0.30;;;15.90;99.90;;;;;;4975072;28;20392;-68
2021/07/15 01:04:51;;;;;;;1.95;0.15;;;15.90;99.90;;;;;;4974783;28;20031;-68
2021/07/15 01:07:16;;;;;;;0.30;0.30;;;16.00;99.90;;;;;;4975242;28;20027;-68
2021/07/15 01:09:43;;;;;;;1.25;0.17;;;16.00;99.90;;;;;;4974687;28;20507;-68
2021/07/15 01:12:17;;;;;;;1.75;0.10;;;15.80;99.90;;;;;;4975224;28;20046;-68
2021/07/15 01:14:56;;;;;;;0.40;0.10;;;15.70;99.90;;;;;;4974488;28;20061;-68
2021/07/15 01:17:26;;;;;;;0.47;0.10;;;15.60;99.90;;;;;;4985150;28;20026;-68
2021/07/15 01:20:12;;;;;;;2.65;0.30;;;15.80;99.90;;;;;;4994594;28;20030;-68
2021/07/15 01:22:43;;;;;;;0.10;0.10;;;15.70;99.90;;;;;;4995879;28;20022;-69
2021/07/15 01:25:39;;;;;;;0.05;0.05;;;15.50;99.90;;;;;;4993830;28;20492;-70
2021/07/15 01:28:08;;;;;;;0.77;0.10;;;15.40;99.90;;;;;;4993971;28;20042;-69
2021/07/15 01:30:33;;;;;;;0.30;0.10;;;15.40;99.90;;;;;;4994212;28;20082;-68
2021/07/15 01:33:05;;;;;;;0.15;0.10;;;15.30;99.90;;;;;;4994298;28;20134;-68
2021/07/15 01:35:38;;;;;;;0.10;0.00;;;15.30;99.90;;;;;;4993628;28;20443;-68
2021/07/15 01:38:05;;;;;;;0.08;0.08;;;15.30;99.90;;;;;;4994158;28;20076;-68
2021/07/15 01:40:42;;;;;;;0.20;0.10;;;15.40;99.90;;;;;;4993629;28;20030;-69
2021/07/15 01:43:12;;;;;;;2.38;0.20;;;15.20;99.90;;;;;;4994304;28;20026;-69
2021/07/15 01:45:39;;;;;;;0.10;0.10;;;15.30;99.90;;;;;;4993206;28;20033;-69
2021/07/15 01:48:05;;;;;;;1.80;0.13;;;15.40;99.90;;;;;;4993713;28;20400;-69
2021/07/15 01:50:32;;;;;;;0.17;0.10;;;15.50;99.90;;;;;;4994239;28;20081;-69
2021/07/15 01:52:58;;;;;;;0.47;0.00;;;15.30;99.90;;;;;;4994042;28;20027;-69
2021/07/15 01:55:25;;;;;;;1.85;0.20;;;15.30;99.90;;;;;;4993352;28;20041;-68
2021/07/15 01:57:54;;;;;;;0.93;0.10;;;15.20;99.90;;;;;;4993980;28;20409;-68
2021/07/15 02:00:19;;;;;;;0.05;0.05;;;15.20;99.90;;;;;;4993323;28;20018;-69
2021/07/15 02:02:46;;;;;;;0.77;0.20;;;15.20;99.90;;;;;;4993614;28;20049;-69
2021/07/15 02:05:12;;;;;;;0.08;0.08;;;15.30;99.90;;;;;;4993185;28;20026;-68
2021/07/15 02:07:41;;;;;;;0.55;0.20;;;15.20;99.90;;;;;;4993709;28;20688;-68
2021/07/15 02:10:10;;;;;;;2.20;0.20;;;15.20;99.90;;;;;;4993614;28;20026;-68
2021/07/15 02:12:37;;;;;;;0.20;0.10;;;15.30;99.90;;;;;;4993735;28;20026;-69
2021/07/15 02:15:04;;;;;;;0.10;0.10;;;15.30;99.90;;;;;;4992871;28;20038;-69
2021/07/15 02:17:33;;;;;;;3.85;0.15;;;15.30;99.90;;;;;;4993357;28;20026;-69
2021/07/15 02:20:00;;;;;;;0.10;0.10;;;15.40;99.90;;;;;;4993304;28;20030;-68
2021/07/15 02:22:26;;;;;;;2.28;0.20;;;15.60;99.90;;;;;;4993647;28;20030;-68
2021/07/15 02:24:54;;;;;;;0.70;0.20;;;15.60;99.90;;;;;;4992986;28;20018;-68
2021/07/15 02:27:20;;;;;;;1.13;0.10;;;15.70;99.90;;;;;;4994918;28;20117;-68
2021/07/15 02:29:45;;;;;;;1.38;0.20;;;15.70;99.90;;;;;;4994520;28;20069;-68
2021/07/15 02:32:13;;;;;;;4.55;0.40;;;15.70;99.90;;;;;;4993179;28;20026;-68
2021/07/15 02:35:01;;;;;;;0.47;0.10;;;15.80;99.90;;;;;;4985947;28;20122;-68
2021/07/15 02:37:32;;;;;;;1.20;0.20;;;15.80;99.90;;;;;;4973836;28;20053;-68
2021/07/15 02:39:58;;;;;;;0.20;0.20;;;15.80;99.90;;;;;;4974013;28;20085;-68
2021/07/15 02:42:24;;;;;;;0.17;0.17;;;15.70;99.90;;;;;;4956360;28;20031;-68
2021/07/15 02:44:50;;;;;;;0.82;0.30;;;15.50;99.90;;;;;;4973177;28;20034;-68
2021/07/15 02:47:16;;;;;;;1.13;0.10;;;15.50;99.90;;;;;;4982832;28;20042;-68
2021/07/15 02:49:44;;;;;;;3.65;0.20;;;15.60;99.90;;;;;;4995178;28;20034;-69
2021/07/15 02:52:10;;;;;;;0.38;0.38;;;15.60;99.90;;;;;;4994923;28;20118;-68
2021/07/15 02:54:38;;;;;;;0.20;0.10;;;15.70;99.90;;;;;;4992209;28;20026;-68
2021/07/15 02:57:11;;;;;;;3.63;0.85;;;15.70;99.90;;;;;;4992979;28;20362;-68
2021/07/15 02:59:56;;;;;;;5.72;1.60;;;15.60;99.90;;;;;;4992892;28;20048;-69
2021/07/15 03:02:53;;;;;;;5.70;3.35;;;15.50;99.90;;;;;;4992432;28;20034;-69
2021/07/15 03:05:26;;;;;;;2.50;2.28;;;15.60;99.90;;;;;;4987889;28;20113;-69
2021/07/15 03:07:56;;;;;;;2.03;1.70;;;15.60;99.90;;;;;;4992549;28;20484;-70
2021/07/15 03:10:23;;;;;;;1.13;1.13;;;15.60;99.90;;;;;;4992579;28;20030;-69
2021/07/15 03:12:51;;;;;;;1.30;1.30;;;15.60;99.90;;;;;;4992761;28;20033;-68
2021/07/15 03:15:16;;;;;;;1.45;0.40;;;15.50;99.90;;;;;;4974389;28;20026;-69
2021/07/15 03:17:49;;;;;;;5.25;0.30;;;15.60;99.90;;;;;;4991953;28;20029;-69
2021/07/15 03:20:25;;;;;;;3.30;0.47;;;15.70;99.90;;;;;;4992357;28;20109;-69
2021/07/15 03:22:55;;;;;;;0.20;0.20;;;15.60;99.90;;;;;;4992448;28;20023;-69
2021/07/15 03:25:22;;;;;;;1.60;0.20;;;15.50;99.90;;;;;;4991707;28;20050;-69
2021/07/15 03:27:51;;;;;;;4.07;0.22;;;15.60;99.90;;;;;;4992214;28;20069;-68
2021/07/15 03:30:18;;;;;;;0.15;0.15;;;15.50;99.90;;;;;;4992107;28;20532;-68
2021/07/15 03:32:47;;;;;;;2.85;0.20;;;15.50;99.90;;;;;;4989806;28;20408;-70
2021/07/15 03:35:15;;;;;;;0.30;0.13;;;15.50;99.90;;;;;;4975848;28;20026;-69
2021/07/15 03:37:44;;;;;;;1.70;0.20;;;15.50;99.90;;;;;;4988754;28;20033;-69
2021/07/15 03:40:12;;;;;;;1.23;0.20;;;15.70;99.90;;;;;;4991393;28;20026;-69
2021/07/15 03:42:39;;;;;;;0.20;0.20;;;15.80;99.90;;;;;;4991763;28;20053;-69
2021/07/15 03:45:07;;;;;;;0.30;0.30;;;15.80;99.90;;;;;;4990878;28;20053;-68
2021/07/15 03:47:33;;;;;;;0.30;0.20;;;15.80;99.90;;;;;;4991331;28;20046;-69
2021/07/15 03:50:00;;;;;;;1.30;0.20;;;15.80;99.90;;;;;;4991819;28;20105;-69
2021/07/15 03:52:25;;;;;;;4.03;0.38;;;15.80;99.90;;;;;;4991881;28;20488;-69
2021/07/15 03:54:52;;;;;;;1.10;0.60;;;15.90;99.90;;;;;;4991564;28;20043;-69
2021/07/15 03:57:20;;;;;;;1.27;0.70;;;16.00;99.90;;;;;;4991597;28;20089;-69
2021/07/15 03:59:50;;;;;;;1.75;0.40;;;16.00;99.90;;;;;;4991597;28;20018;-69
2021/07/15 04:02:19;;;;;;;2.20;0.60;;;15.90;99.90;;;;;;4991480;28;20033;-68
2021/07/15 04:04:50;;;;;;;3.53;1.02;;;15.90;99.90;;;;;;4992470;28;20109;-69
2021/07/15 04:07:19;;;;;;;1.60;0.30;;;15.80;99.90;;;;;;4995848;28;20030;-68
2021/07/15 04:09:46;;;;;;;0.85;0.20;;;15.90;99.90;;;;;;4995884;28;20018;-68
2021/07/15 04:12:13;;;;;;;1.65;0.20;;;15.80;99.90;;;;;;4995811;28;20396;-69
2021/07/15 04:14:57;;;;;;;0.47;0.40;;;15.90;99.90;;;;;;4994908;28;20026;-69
2021/07/15 04:17:26;;;;;;;0.93;0.20;;;15.90;99.90;;;;;;4995280;28;20392;-68
2021/07/15 04:19:59;;;;;;;1.92;0.20;;;15.90;99.90;;;;;;4995678;28;20022;-69
2021/07/15 04:22:26;;;;;;;0.75;0.45;;;15.80;99.90;;;;;;4995596;28;20029;-68
2021/07/15 04:24:52;;;;;;;1.00;0.20;;;15.80;99.90;;;;;;4996139;28;20161;-69
2021/07/15 04:27:18;;;;;;;1.08;0.30;;;15.70;99.90;;;;;;5011865;28;20469;-68
2021/07/15 04:29:45;;;;;;;4.22;0.40;;;15.60;99.90;;;;;;4996568;28;20069;-69
2021/07/15 04:32:26;;;;;;;0.22;0.22;;;15.80;99.90;;;;;;4995542;28;20507;-68
2021/07/15 04:34:54;;;;;;;0.63;0.30;;;16.00;99.90;;;;;;4994381;28;20080;-69
2021/07/15 04:37:21;;;;;;;0.40;0.40;;;16.10;99.90;;;;;;4994928;28;20022;-69
2021/07/15 04:39:47;;;;;;;1.85;0.60;;;16.10;99.90;;;;;;4995254;28;20019;-69
2021/07/15 04:42:15;;;;;;;1.52;0.40;;;16.20;99.90;;;;;;4993400;28;20046;-69
2021/07/15 04:44:43;;;;;;;1.52;0.40;;;16.20;99.90;;;;;;4993992;28;20054;-69
2021/07/15 04:47:10;;;;;;;3.30;0.50;;;16.10;99.90;;;;;;4994417;28;20034;-69
2021/07/15 04:49:36;;;;;;;0.75;0.43;;;16.10;99.90;;;;;;4976920;28;20502;-69
2021/07/15 04:52:03;;;;;;;1.75;0.20;;;16.20;99.90;;;;;;4994933;28;20034;-69
2021/07/15 04:54:30;;;;;;;1.55;0.20;;;16.30;99.90;;;;;;4993689;28;20473;-69
2021/07/15 04:56:56;;;;;;;2.92;0.20;;;16.30;99.90;;;;;;4994614;28;20030;-73
2021/07/15 04:59:22;;;;;;;3.10;0.40;;;16.30;99.90;;;;;;4994782;28;20061;-73
2021/07/15 05:01:48;;;;;;;0.85;0.30;;;16.30;99.90;;;;;;4994829;28;20029;-72
2021/07/15 05:04:14;;;;;;;0.28;0.28;;;16.20;99.90;;;;;;4994927;28;20049;-72
2021/07/15 05:06:40;;;;;;;1.40;0.20;;;16.10;99.90;;;;;;4993820;28;20022;-72
2021/07/15 05:09:06;;;;;;;1.65;0.30;;;16.10;99.90;;;;;;4994852;28;20480;-73
2021/07/15 05:11:35;;;;;;;2.40;0.40;;;16.10;99.90;;;;;;4994465;28;20023;-72
2021/07/15 05:14:02;;;;;;;3.00;0.22;;;16.20;99.90;;;;;;4994675;28;20050;-72
2021/07/15 05:16:29;;;;;;;3.92;0.68;;;16.30;99.90;;;;;;4994357;28;20026;-74
2021/07/15 05:18:55;;;;;;;0.55;0.30;;;16.40;99.90;;;;;;4993367;28;20030;-71
2021/07/15 05:21:20;;;;;;;3.13;0.30;;;16.30;99.90;;;;;;4994404;28;20019;-70
2021/07/15 05:23:46;;;;;;;1.77;0.20;;;16.20;99.90;;;;;;4994397;28;20523;-70
2021/07/15 05:26:11;;;;;;;1.02;0.20;;;16.30;99.90;;;;;;4993059;28;20084;-70
2021/07/15 05:28:37;;;;;;;1.08;0.10;;;16.40;99.90;;;;;;4988460;28;20030;-71
2021/07/15 05:31:03;;;;;;;0.50;0.10;;;16.40;99.90;;;;;;4974498;28;20089;-69
2021/07/15 05:33:28;;;;;;;1.88;0.20;;;16.30;99.90;;;;;;4974415;28;20081;-69
2021/07/15 05:35:54;;;;;;;3.25;0.30;;;16.20;99.90;;;;;;4978364;28;20030;-70
2021/07/15 05:38:20;;;;;;;2.38;0.50;;;16.20;99.90;;;;;;4993900;28;20602;-69
2021/07/15 05:40:46;;;;;;;4.13;0.40;;;16.30;99.90;;;;;;4976750;28;20026;-70
2021/07/15 05:43:11;;;;;;;1.50;0.40;;;16.40;99.90;;;;;;4994181;28;20496;-70
2021/07/15 05:45:37;;;;;;;1.85;0.30;;;16.50;99.90;;;;;;4989756;28;20073;-68
2021/07/15 05:48:03;;;;;;;0.70;0.20;;;16.60;99.90;;;;;;4991869;28;20038;-68
2021/07/15 05:50:29;;;;;;;1.65;0.20;;;16.50;99.90;;;;;;4993124;28;20113;-69
2021/07/15 05:52:54;;;;;;;1.20;0.20;;;16.50;99.90;;;;;;4987691;28;20096;-68
2021/07/15 05:55:20;;;;;;;1.27;0.28;;;16.60;99.90;;;;;;4992746;28;20058;-68
2021/07/15 05:57:45;;;;;;;1.33;0.20;;;16.50;99.90;;;;;;4993983;28;20033;-68
2021/07/15 06:00:14;;;;;;;3.15;0.20;;;16.70;99.90;;;;;;4993954;28;20026;-68
2021/07/15 06:02:39;;;;;;;0.60;0.20;;;16.80;99.90;;;;;;4993146;28;20031;-68
2021/07/15 06:05:06;;;;;;;1.80;0.10;;;16.80;99.90;;;;;;4992975;28;20051;-68
2021/07/15 06:07:31;;;;;;;3.03;0.10;;;16.80;99.90;;;;;;4993445;28;20031;-68
2021/07/15 06:09:57;;;;;;;1.00;0.17;;;16.70;99.90;;;;;;4993783;28;20038;-70
2021/07/15 06:12:23;;;;;;;0.15;0.10;;;16.70;99.90;;;;;;4978785;28;20030;-70
2021/07/15 06:14:48;;;;;;;3.30;0.30;;;16.90;99.90;;;;;;5002290;28;20476;-70
2021/07/15 06:17:14;;;;;;;3.28;0.73;;;17.00;99.90;;;;;;4996574;28;20094;-69
2021/07/15 06:19:40;;;;;;;1.13;0.15;;;16.70;99.90;;;;;;4994925;28;20018;-70
2021/07/15 06:22:06;;;;;;;1.40;0.17;;;16.70;99.90;;;;;;5013092;28;20022;-69
2021/07/15 06:24:32;;;;;;;1.48;0.15;;;16.60;99.90;;;;;;5012497;28;20021;-69
2021/07/15 06:26:58;;;;;;;0.85;0.10;;;16.40;99.90;;;;;;5012815;28;20041;-68
2021/07/15 06:29:24;;;;;;;1.00;0.20;;;16.20;99.90;;;;;;4995148;28;20026;-68
2021/07/15 06:31:49;;;;;;;0.20;0.10;;;16.10;99.90;;;;;;4996305;28;20429;-70
2021/07/15 06:34:15;;;;;;;0.70;0.30;;;16.20;99.90;;;;;;4992508;28;20093;-69
2021/07/15 06:36:44;;;;;;;1.60;0.40;;;16.40;99.90;;;;;;4996619;28;20022;-69
2021/07/15 06:39:10;;;;;;;1.52;0.63;;;16.40;99.90;;;;;;4996394;28;20019;-70
2021/07/15 06:41:36;;;;;;;2.03;0.30;;;16.20;99.90;;;;;;4996333;28;20333;-70
2021/07/15 06:44:03;;;;;;;0.30;0.30;;;16.40;99.90;;;;;;4995226;28;20030;-69
2021/07/15 06:46:30;;;;;;;1.95;0.20;;;16.50;99.90;;;;;;4992079;28;20465;-69
2021/07/15 06:48:55;;;;;;;1.75;0.30;;;16.80;99.90;;;;;;4975436;28;20496;-69
2021/07/15 06:51:21;;;;;;;4.88;0.38;;;16.60;99.90;;;;;;4993748;28;20027;-69
2021/07/15 06:53:51;;;;;;;1.48;0.30;;;16.50;99.90;;;;;;4992770;28;20556;-69
2021/07/15 06:56:17;;;;;;;2.88;0.20;;;16.40;99.90;;;;;;4992029;28;20033;-69
2021/07/15 06:58:42;;;;;;;1.70;0.20;;;16.40;99.90;;;;;;4992716;28;20404;-69
2021/07/15 07:01:09;;;;;;;0.35;0.20;;;16.50;99.90;;;;;;4992659;28;20033;-70
2021/07/15 07:03:35;;;;;;;0.63;0.32;;;16.40;99.90;;;;;;4992415;28;20022;-70
2021/07/15 07:06:02;;;;;;;2.53;0.20;;;16.80;99.90;;;;;;4991817;28;20105;-70
2021/07/15 07:08:28;;;;;;;0.43;0.20;;;17.20;99.90;;;;;;4992797;28;20515;-70
2021/07/15 07:10:53;;;;;;;7.43;0.60;;;17.40;99.90;;;;;;4992579;28;20034;-70
2021/07/15 07:13:19;;;;;;;2.38;0.20;;;17.50;99.90;;;;;;4992203;28;20106;-70
2021/07/15 07:15:45;;;;;;;1.77;0.25;;;17.60;99.90;;;;;;4991959;28;20444;-70
2021/07/15 07:18:11;;;;;;;2.47;0.50;;;17.40;99.90;;;;;;4993194;28;20483;-69
2021/07/15 07:20:37;;;;;;;3.30;0.28;;;17.30;99.90;;;;;;4978696;28;20026;-70
2021/07/15 07:23:07;;;;;;;0.63;0.20;;;17.10;99.90;;;;;;4995448;28;20800;-70
2021/07/15 07:25:33;;;;;;;1.88;0.40;;;17.20;99.90;;;;;;4992210;28;20466;-70
2021/07/15 07:27:58;;;;;;;3.38;0.40;;;17.50;99.90;;;;;;4992227;28;20037;-70
2021/07/15 07:30:24;;;;;;;1.25;0.60;;;17.80;99.90;;;;;;4992432;28;20550;-69
2021/07/15 07:32:50;;;;;;;3.25;0.80;;;17.70;99.90;;;;;;4992053;28;20392;-69
2021/07/15 07:35:17;;;;;;;2.40;0.93;;;17.60;99.90;;;;;;4991630;28;20077;-69
2021/07/15 07:37:43;;;;;;;0.60;0.30;;;17.30;99.90;;;;;;4992096;28;20026;-70
2021/07/15 07:40:11;;;;;;;1.35;0.40;;;17.60;99.90;;;;;;4991098;28;20027;-69
2021/07/15 07:42:37;;;;;;;0.57;0.30;;;17.90;99.90;;;;;;4991943;28;20473;-70
2021/07/15 07:45:06;;;;;;;0.30;0.10;;;17.90;99.90;;;;;;4990922;28;20117;-69
2021/07/15 07:47:31;;;;;;;1.80;0.20;;;18.10;99.90;;;;;;4991270;28;20120;-69
2021/07/15 07:49:57;;;;;;;1.00;0.20;;;18.20;99.90;;;;;;4992007;28;20117;-69
2021/07/15 07:52:23;;;;;;;5.65;0.20;;;18.30;99.90;;;;;;4991918;28;20038;-69
2021/07/15 07:54:48;;;;;;;2.55;0.30;;;18.60;99.90;;;;;;4990994;28;20032;-69
2021/07/15 07:57:14;;;;;;;1.20;0.30;;;18.30;99.90;;;;;;4991999;28;20479;-69
2021/07/15 07:59:40;;;;;;;2.17;0.17;;;18.30;99.90;;;;;;4974538;28;20498;-70
2021/07/15 08:02:06;;;;;;;2.05;0.20;;;18.40;99.90;;;;;;4991737;28;20061;-70
2021/07/15 08:04:32;;;;;;;1.55;0.10;;;18.20;99.90;;;;;;4990490;28;20076;-69
2021/07/15 08:06:58;;;;;;;1.75;0.35;;;18.50;99.90;;;;;;4991357;28;20491;-70
2021/07/15 08:09:25;;;;;;;2.17;0.22;;;19.00;99.90;;;;;;4991704;28;20038;-69
2021/07/15 08:11:54;;;;;;;1.23;0.30;;;19.60;99.90;;;;;;4991829;28;20030;-70
2021/07/15 08:14:21;;;;;;;0.95;0.22;;;19.20;99.90;;;;;;4990786;28;20025;-69
2021/07/15 08:16:47;;;;;;;0.60;0.30;;;18.40;99.90;;;;;;4991201;28;20041;-69
2021/07/15 08:19:13;;;;;;;0.20;0.20;;;18.00;99.90;;;;;;4991050;28;20489;-70
2021/07/15 08:21:39;;;;;;;1.85;0.10;;;18.10;99.90;;;;;;4991234;28;20147;-70
2021/07/15 08:24:05;;;;;;;1.98;0.30;;;18.00;99.90;;;;;;4991447;28;20018;-70
2021/07/15 08:26:31;;;;;;;1.02;0.30;;;18.20;99.90;;;;;;4990252;28;20056;-70
2021/07/15 08:28:57;;;;;;;2.60;0.40;;;18.10;99.90;;;;;;4991319;28;20037;-70
2021/07/15 08:31:24;;;;;;;5.00;0.40;;;18.20;99.90;;;;;;4991917;28;20106;-70
2021/07/15 08:33:49;;;;;;;1.75;0.20;;;18.30;99.90;;;;;;4991679;28;20416;-70
2021/07/15 08:36:15;;;;;;;1.90;0.22;;;18.40;99.90;;;;;;4990847;28;20085;-70
2021/07/15 08:38:41;;;;;;;0.30;0.10;;;18.20;99.90;;;;;;4991215;28;20019;-70
2021/07/15 08:41:07;;;;;;;0.65;0.20;;;17.90;99.90;;;;;;4991840;28;20540;-70
2021/07/15 08:43:37;;;;;;;0.30;0.30;;;17.80;99.90;;;;;;4991717;28;20058;-70
2021/07/15 08:46:05;;;;;;;3.15;0.20;;;17.90;99.90;;;;;;4990886;28;20022;-70
2021/07/15 08:48:33;;;;;;;0.20;0.10;;;18.00;99.90;;;;;;4991467;28;20389;-70
2021/07/15 08:50:59;;;;;;;0.80;0.22;;;18.00;99.90;;;;;;4993722;28;20027;-70
2021/07/15 08:53:27;;;;;;;0.80;0.30;;;17.90;99.90;;;;;;4994953;28;20084;-70
2021/07/15 08:58:38;;;;;;;1.65;0.30;;;17.80;99.90;;;;;;4995298;28;20114;-70
2021/07/15 09:01:05;;;;;;;0.65;0.10;;;18.00;99.90;;;;;;4995177;28;20130;-70
2021/07/15 09:03:34;;;;;;;0.20;0.20;;;18.00;99.90;;;;;;4994949;28;20113;-70
2021/07/15 09:06:00;;;;;;;1.83;0.17;;;18.00;99.90;;;;;;4994361;28;20489;-71
2021/07/15 09:08:25;;;;;;;2.08;0.17;;;17.80;99.90;;;;;;4977451;28;20053;-70
2021/07/15 09:10:51;;;;;;;3.90;0.20;;;17.80;99.90;;;;;;4995159;28;20057;-70
2021/07/15 09:13:17;;;;;;;0.60;0.22;;;17.80;99.90;;;;;;4994710;28;20062;-70
2021/07/15 09:15:47;;;;;;;0.13;0.13;;;17.80;99.90;;;;;;4994201;28;20042;-70
2021/07/15 09:18:13;;;;;;;0.10;0.10;;;18.00;99.90;;;;;;4994387;28;20037;-72
2021/07/15 09:20:40;;;;;;;1.48;0.10;;;18.30;99.90;;;;;;4994699;28;20033;-69
2021/07/15 09:23:08;;;;;;;0.38;0.10;;;18.40;99.90;;;;;;4994740;28;20033;-69
2021/07/15 09:25:37;;;;;;;0.20;0.20;;;18.40;99.90;;;;;;4994092;28;20037;-69
2021/07/15 09:28:04;;;;;;;0.77;0.38;;;18.70;99.90;;;;;;4994577;28;20026;-69
2021/07/15 09:30:30;;;;;;;0.55;0.10;;;18.70;99.90;;;;;;4994439;28;20022;-69
2021/07/15 09:32:57;;;;;;;1.45;0.10;;;19.40;99.90;;;;;;4994725;28;20029;-69
2021/07/15 09:35:35;;;;;;;0.13;0.13;;;20.00;99.90;;;;;;4993701;28;20027;-68
2021/07/15 09:38:27;;;;;;;0.20;0.20;;;20.50;99.90;;;;;;4994602;28;20023;-69
2021/07/15 09:41:00;;;;;;;0.70;0.20;;;20.70;99.90;;;;;;4991117;28;20523;-69
2021/07/15 09:43:27;;;;;;;0.20;0.20;;;21.00;99.90;;;;;;4993760;28;20038;-69
2021/07/15 09:45:56;;;;;;;0.95;0.20;;;21.00;99.90;;;;;;4993650;28;20042;-68
2021/07/15 09:48:30;;;;;;;0.20;0.20;;;20.70;99.90;;;;;;4993655;28;20065;-68
2021/07/15 09:51:00;;;;;;;1.65;0.20;;;20.70;99.90;;;;;;4994303;28;20396;-69
2021/07/15 09:53:31;;;;;;;1.08;0.10;;;21.00;99.90;;;;;;4993830;28;20412;-68
2021/07/15 09:56:00;;;;;;;4.47;0.50;;;21.20;99.90;;;;;;4993310;28;20030;-68
2021/07/15 09:59:00;;;;;;;0.55;0.10;;;21.10;99.90;;;;;;4994066;28;20056;-68
2021/07/15 10:01:25;;;;;;;0.90;0.10;;;20.40;99.90;;;;;;4976298;28;20109;-69
2021/07/15 10:03:54;;;;;;;0.10;0.10;;;20.00;99.90;;;;;;4993802;28;20529;-70
2021/07/15 10:06:20;;;;;;;1.38;0.63;;;20.10;99.90;;;;;;4992890;28;20079;-70
2021/07/15 10:08:52;;;;;;;0.30;0.00;;;20.00;99.90;;;;;;4993879;28;20049;-70
2021/07/15 10:11:30;;;;;;;1.15;0.30;;;20.80;99.90;;;;;;4993793;28;20455;-70
2021/07/15 10:14:01;;;;;;;2.60;0.10;;;21.30;99.90;;;;;;4993605;28;20400;-70
2021/07/15 10:16:36;;;;;;;0.10;0.10;;;21.40;99.90;;;;;;4992561;28;20023;-70
2021/07/15 10:19:02;;;;;;;0.10;0.10;;;21.60;99.90;;;;;;4993654;28;20505;-70
2021/07/15 10:21:30;;;;;;;0.60;0.30;;;21.30;99.90;;;;;;4993742;28;20026;-72
2021/07/15 10:23:57;;;;;;;4.63;0.20;;;21.70;99.90;;;;;;4995842;28;20027;-72
2021/07/15 10:26:23;;;;;;;0.10;0.10;;;21.80;99.90;;;;;;4978635;28;20030;-71
2021/07/15 10:28:51;;;;;;;0.20;0.20;;;21.60;99.90;;;;;;4995255;28;20508;-72
2021/07/15 10:31:19;;;;;;;0.95;0.10;;;22.10;99.90;;;;;;4993552;28;20038;-72
2021/07/15 10:33:46;;;;;;;0.10;0.10;;;22.40;99.90;;;;;;4975982;28;20420;-72
2021/07/15 10:36:12;;;;;;;0.20;0.20;;;22.30;99.90;;;;;;4992757;28;20036;-71
2021/07/15 10:38:44;;;;;;;0.22;0.10;;;22.20;99.90;;;;;;4993379;28;20027;-70
2021/07/15 10:41:11;;;;;;;0.22;0.20;;;22.30;99.90;;;;;;4993377;28;20025;-71
2021/07/15 10:43:38;;;;;;;0.93;0.20;;;21.70;99.90;;;;;;4993058;28;20789;-71
2021/07/15 10:46:06;;;;;;;0.75;0.10;;;21.70;99.90;;;;;;4990709;28;20113;-71
2021/07/15 10:48:34;;;;;;;3.20;0.10;;;21.10;99.90;;;;;;4990686;28;20077;-71
2021/07/15 10:51:01;;;;;;;1.10;0.10;;;21.00;99.90;;;;;;4992787;28;20113;-71
2021/07/15 10:53:34;;;;;;;0.25;0.20;;;20.80;99.90;;;;;;4992593;28;20110;-69
2021/07/15 10:56:02;;;;;;;0.35;0.10;;;21.00;99.90;;;;;;4991849;28;20081;-69
2021/07/15 10:58:51;;;;;;;0.55;0.10;;;21.30;99.90;;;;;;4992544;28;20115;-69
2021/07/15 11:01:36;;;;;;;1.25;0.10;;;21.20;99.90;;;;;;4992846;28;20034;-69
2021/07/15 11:04:14;;;;;;;0.10;0.10;;;21.40;99.90;;;;;;4992595;28;20077;-70
2021/07/15 11:06:44;;;;;;;1.25;0.20;;;20.90;99.90;;;;;;4988894;28;20033;-70
2021/07/15 11:09:25;;;;;;;0.20;0.20;;;20.80;99.90;;;;;;4973082;28;20545;-69
2021/07/15 11:11:51;;;;;;;0.30;0.20;;;20.40;99.90;;;;;;4973037;28;20034;-69
2021/07/15 11:14:41;;;;;;;0.20;0.10;;;20.10;99.90;;;;;;4986293;28;20122;-69
2021/07/15 11:17:28;;;;;;;1.52;0.17;;;20.40;99.90;;;;;;4992359;28;20065;-69
2021/07/15 11:19:55;;;;;;;0.30;0.13;;;21.40;99.90;;;;;;4992038;28;20026;-69
2021/07/15 11:22:51;;;;;;;0.57;0.13;;;22.50;99.90;;;;;;4992494;28;20029;-69
2021/07/15 11:25:29;;;;;;;1.02;0.10;;;22.70;99.90;;;;;;4975036;28;20060;-70
2021/07/15 11:27:56;;;;;;;0.32;0.20;;;22.00;99.90;;;;;;4992858;28;20022;-71
2021/07/15 11:30:34;;;;;;;0.20;0.20;;;22.30;99.90;;;;;;4972329;28;20031;-69
2021/07/15 11:33:18;;;;;;;5.47;0.20;;;22.80;99.90;;;;;;4972178;28;20022;-70
2021/07/15 11:36:11;;;;;;;0.30;0.30;;;23.10;99.90;;;;;;4969597;28;20023;-69
2021/07/15 11:38:53;;;;;;;0.10;0.10;;;22.30;99.90;;;;;;4972713;28;20031;-70
2021/07/15 11:41:20;;;;;;;0.03;0.03;;;22.40;99.90;;;;;;4981110;28;20023;-69
2021/07/15 11:43:50;;;;;;;0.20;0.20;;;23.00;99.90;;;;;;4981379;28;20019;-69
2021/07/15 11:46:32;;;;;;;1.50;0.20;;;23.20;99.90;;;;;;4993590;28;20049;-68
2021/07/15 11:49:07;;;;;;;1.00;0.28;;;23.90;99.90;;;;;;4992343;28;20503;-68
2021/07/15 11:51:38;;;;;;;0.40;0.25;;;25.70;99.90;;;;;;4992852;28;20034;-69
2021/07/15 11:54:17;;;;;;;2.40;0.55;;;25.80;99.90;;;;;;4991679;28;20443;-70
2021/07/15 11:56:47;;;;;;;0.90;0.20;;;24.60;99.90;;;;;;4991467;28;20126;-73
2021/07/15 11:59:34;;;;;;;1.95;0.20;;;24.20;99.90;;;;;;4991891;28;20026;-72
2021/07/15 12:02:28;;;;;;;0.82;0.10;;;25.30;99.90;;;;;;4984256;28;20023;-73
2021/07/15 12:05:07;;;;;;;3.05;0.65;;;23.50;99.90;;;;;;4979825;28;20038;-73
2021/07/15 12:07:34;;;;;;;0.10;0.10;;;22.50;99.90;;;;;;4991727;28;20034;-73
2021/07/15 12:10:01;;;;;;;0.70;0.25;;;22.30;99.90;;;;;;4991729;28;20030;-73
2021/07/15 12:12:27;;;;;;;0.93;0.30;;;23.10;99.90;;;;;;4991956;28;20058;-72
2021/07/15 12:14:54;;;;;;;0.60;0.30;;;23.00;99.90;;;;;;4991157;28;20034;-72
2021/07/15 12:17:20;;;;;;;0.40;0.40;;;22.00;99.90;;;;;;4991526;28;20077;-72
2021/07/15 12:19:57;;;;;;;0.45;0.30;;;21.50;99.90;;;;;;4991239;28;20022;-71
2021/07/15 12:22:23;;;;;;;0.30;0.30;;;21.80;99.90;;;;;;4991703;28;20027;-70
2021/07/15 12:24:52;;;;;;;0.45;0.22;;;22.30;99.90;;;;;;4991108;28;20065;-71
2021/07/15 12:27:21;;;;;;;1.55;0.30;;;22.50;99.90;;;;;;4995368;28;20026;-70
2021/07/15 12:29:59;;;;;;;0.70;0.43;;;22.60;99.90;;;;;;4995129;28;20041;-70
2021/07/15 12:32:26;;;;;;;1.08;0.30;;;22.80;99.90;;;;;;4995357;28;20027;-69
2021/07/15 12:34:52;;;;;;;0.25;0.25;;;22.60;99.90;;;;;;4994575;28;20058;-71
2021/07/15 12:37:19;;;;;;;0.70;0.38;;;22.80;99.90;;;;;;4995858;28;20026;-71
2021/07/15 12:39:57;;;;;;;0.32;0.28;;;22.80;99.90;;;;;;4996256;28;20018;-71
2021/07/15 12:42:22;;;;;;;1.77;0.25;;;22.50;99.90;;;;;;4995454;28;20489;-75
2021/07/15 12:44:48;;;;;;;0.30;0.30;;;22.40;99.90;;;;;;4996689;28;20029;-76
2021/07/15 12:47:14;;;;;;;0.35;0.22;;;22.30;99.90;;;;;;4979461;28;20117;-73
2021/07/15 12:49:40;;;;;;;0.20;0.20;;;21.90;99.90;;;;;;4994695;28;20026;-74
2021/07/15 12:52:06;;;;;;;0.65;0.30;;;21.80;99.90;;;;;;4985359;28;20056;-73
2021/07/15 12:57:02;;;;;;;0.40;0.40;;;22.00;99.90;;;;;;4982839;28;20414;-74
2021/07/15 12:59:27;;;;;;;0.30;0.30;;;22.00;99.90;;;;;;4992940;28;20033;-69
2021/07/15 13:01:54;;;;;;;0.52;0.25;;;22.10;99.90;;;;;;4995850;28;20026;-68